Time;durP1;ratioP1;P1;durP2;ratioP2;P2;SDS_P1;SDS_P2;PMS_P1;PMS_P2;Temp;Humidity;BMP_temperature;BMP_pressure;BME280_temperature;BME280_humidity;BME280_pressure;Samples;Min_cycle;Max_cycle;Signal;HPM_P1;HPM_P2
2021/05/19 00:01:56;;;;;;;;;;;20.90;37.40;;;;;;5014907;28;76914;-67
2021/05/19 00:04:21;;;;;;;;;;;20.90;37.60;;;;;;5014098;28;75335;-68
2021/05/19 00:06:47;;;;;;;;;;;20.90;37.60;;;;;;5033035;28;75124;-66
2021/05/19 00:09:13;;;;;;;;;;;20.80;37.70;;;;;;5013727;28;76516;-70
2021/05/19 00:11:39;;;;;;;;;;;20.70;38.10;;;;;;5014208;28;76295;-70
2021/05/19 00:14:06;;;;;;;;;;;20.70;37.90;;;;;;5014638;28;78325;-66
2021/05/19 00:16:31;;;;;;;;;;;20.70;38.00;;;;;;5033685;28;74561;-70
2021/05/19 00:18:57;;;;;;;;;;;20.60;38.30;;;;;;5032934;28;75002;-67
2021/05/19 00:21:23;;;;;;;;;;;20.50;38.30;;;;;;5014112;28;76363;-65
2021/05/19 00:23:49;;;;;;;;;;;20.50;38.10;;;;;;5013853;28;76636;-67
2021/05/19 00:26:15;;;;;;;;;;;20.50;38.50;;;;;;5032928;28;74890;-65
2021/05/19 00:28:44;;;;;;;;;;;20.50;38.60;;;;;;5014511;28;78361;-67
2021/05/19 00:31:10;;;;;;;;;;;20.40;38.50;;;;;;5047763;28;77286;-68
2021/05/19 00:33:36;;;;;;;;;;;20.40;38.50;;;;;;5014146;28;77628;-66
2021/05/19 00:36:02;;;;;;;;;;;20.40;38.60;;;;;;5013895;28;76915;-65
2021/05/19 00:38:28;;;;;;;;;;;20.40;38.50;;;;;;5014035;28;75602;-65
2021/05/19 00:40:53;;;;;;;;;;;20.40;38.50;;;;;;5032751;28;75216;-65
2021/05/19 00:43:19;;;;;;;;;;;20.40;38.60;;;;;;5048670;28;75108;-64
2021/05/19 00:45:44;;;;;;;;;;;20.40;38.60;;;;;;5014120;28;76100;-66
2021/05/19 00:48:11;;;;;;;;;;;20.30;38.70;;;;;;5032751;28;75705;-64
2021/05/19 00:50:37;;;;;;;;;;;20.40;38.70;;;;;;5033262;28;74429;-69
2021/05/19 00:53:03;;;;;;;;;;;20.40;38.80;;;;;;5032359;28;74541;-64
2021/05/19 00:55:29;;;;;;;;;;;20.30;38.90;;;;;;5032528;28;74902;-69
2021/05/19 00:57:55;;;;;;;;;;;20.20;38.80;;;;;;5014167;28;77035;-68
2021/05/19 01:00:21;;;;;;;;;;;20.20;38.90;;;;;;5032795;28;74481;-69
2021/05/19 01:02:47;;;;;;;;;;;20.20;38.90;;;;;;5032117;28;75274;-70
2021/05/19 01:05:18;;;;;;;;;;;20.20;39.00;;;;;;5032393;28;75654;-71
2021/05/19 01:10:28;;;;;;;;;;;20.10;39.10;;;;;;5032318;28;75491;-70
2021/05/19 01:12:54;;;;;;;;;;;20.10;39.00;;;;;;5032318;28;75180;-71
2021/05/19 01:15:20;;;;;;;;;;;20.00;39.10;;;;;;5034010;28;74642;-67
2021/05/19 01:17:45;;;;;;;;;;;20.00;39.10;;;;;;5035831;28;75177;-69
2021/05/19 01:20:11;;;;;;;;;;;20.00;39.10;;;;;;5035654;28;75096;-64
2021/05/19 01:22:37;;;;;;;;;;;19.90;39.20;;;;;;5017245;28;77523;-64
2021/05/19 01:25:03;;;;;;;;;;;19.90;39.20;;;;;;5017346;28;78002;-64
2021/05/19 01:27:29;;;;;;;;;;;19.90;39.10;;;;;;5035767;28;74532;-64
2021/05/19 01:29:56;;;;;;;;;;;19.90;39.20;;;;;;5035156;28;75759;-67
2021/05/19 01:32:22;;;;;;;;;;;19.80;39.30;;;;;;5015634;28;75707;-71
2021/05/19 01:34:48;;;;;;;;;;;19.80;39.30;;;;;;5017149;28;74700;-69
2021/05/19 01:37:14;;;;;;;;;;;19.80;39.20;;;;;;5049893;28;77590;-63
2021/05/19 01:39:41;;;;;;;;;;;19.80;39.30;;;;;;5035319;28;75494;-62
2021/05/19 01:42:07;;;;;;;;;;;19.70;39.20;;;;;;5035631;28;75032;-65
2021/05/19 01:44:32;;;;;;;;;;;19.70;39.20;;;;;;5034839;28;74564;-71
2021/05/19 01:46:58;;;;;;;;;;;19.70;39.40;;;;;;5050599;28;77171;-63
2021/05/19 01:49:29;;;;;;;;;;;19.70;39.60;;;;;;5035072;28;75097;-63
2021/05/19 01:51:56;;;;;;;;;;;19.50;39.60;;;;;;5016873;28;75455;-62
2021/05/19 01:54:22;;;;;;;;;;;19.60;39.60;;;;;;5034872;28;74959;-66
2021/05/19 01:56:48;;;;;;;;;;;19.50;39.70;;;;;;5016849;28;75367;-63
2021/05/19 01:59:13;;;;;;;;;;;19.50;39.80;;;;;;5035503;28;74500;-65
2021/05/19 02:01:41;;;;;;;;;;;19.50;39.90;;;;;;5016904;28;75946;-65
2021/05/19 02:04:11;;;;;;;;;;;19.50;39.80;;;;;;5025849;28;75466;-64
2021/05/19 02:06:57;;;;;;;;;;;19.40;40.00;;;;;;5030946;28;77490;-65
2021/05/19 02:09:23;;;;;;;;;;;19.40;39.90;;;;;;5036231;28;78409;-64
2021/05/19 02:11:49;;;;;;;;;;;19.40;39.50;;;;;;5055539;28;74499;-64
2021/05/19 02:14:15;;;;;;;;;;;19.30;39.50;;;;;;5055276;28;74356;-64
2021/05/19 02:16:41;;;;;;;;;;;19.30;39.50;;;;;;5040299;28;75580;-66
2021/05/19 02:19:10;;;;;;;;;;;19.30;39.40;;;;;;5034679;28;75123;-64
2021/05/19 02:21:40;;;;;;;;;;;19.30;39.40;;;;;;5016045;28;77281;-64
2021/05/19 02:24:06;;;;;;;;;;;19.30;39.30;;;;;;5016145;28;75741;-66
2021/05/19 02:26:32;;;;;;;;;;;19.20;39.50;;;;;;5007085;28;77158;-67
2021/05/19 02:28:57;;;;;;;;;;;19.20;39.60;;;;;;5049858;28;75207;-68
2021/05/19 02:31:23;;;;;;;;;;;19.20;39.40;;;;;;5034574;28;75288;-64
2021/05/19 02:33:48;;;;;;;;;;;19.20;39.60;;;;;;5016537;28;76821;-65
2021/05/19 02:36:14;;;;;;;;;;;19.10;39.70;;;;;;5015687;28;77247;-64
2021/05/19 02:38:40;;;;;;;;;;;19.10;39.70;;;;;;5016101;28;76665;-66
2021/05/19 02:41:05;;;;;;;;;;;19.10;39.70;;;;;;5049354;28;76179;-71
2021/05/19 02:43:31;;;;;;;;;;;19.00;39.70;;;;;;5034515;28;74448;-74
2021/05/19 02:45:57;;;;;;;;;;;19.00;39.70;;;;;;5015898;28;77575;-74
2021/05/19 02:48:22;;;;;;;;;;;19.00;39.70;;;;;;5016057;28;76814;-68
2021/05/19 02:50:48;;;;;;;;;;;19.00;39.90;;;;;;5049451;28;77162;-73
2021/05/19 02:53:14;;;;;;;;;;;19.00;39.90;;;;;;5015552;28;76451;-71
2021/05/19 02:55:39;;;;;;;;;;;18.90;40.00;;;;;;5050094;28;78455;-73
2021/05/19 02:58:05;;;;;;;;;;;18.90;40.00;;;;;;5034101;28;75136;-65
2021/05/19 03:00:31;;;;;;;;;;;18.90;40.00;;;;;;5049296;28;77579;-66
2021/05/19 03:02:57;;;;;;;;;;;18.90;40.10;;;;;;5034286;28;74708;-67
2021/05/19 03:05:22;;;;;;;;;;;18.90;40.20;;;;;;5015512;28;77809;-68
2021/05/19 03:07:48;;;;;;;;;;;18.90;40.40;;;;;;5033995;28;75573;-64
2021/05/19 03:10:14;;;;;;;;;;;18.80;40.50;;;;;;5033454;27;75116;-67
2021/05/19 03:12:40;;;;;;;;;;;18.80;40.50;;;;;;5034134;28;75679;-69
2021/05/19 03:15:06;;;;;;;;;;;18.70;40.90;;;;;;5015373;28;78395;-68
2021/05/19 03:17:31;;;;;;;;;;;18.70;40.90;;;;;;5033652;28;75213;-67
2021/05/19 03:19:57;;;;;;;;;;;18.60;41.00;;;;;;5034344;28;74694;-66
2021/05/19 03:22:23;;;;;;;;;;;18.60;41.10;;;;;;5033529;28;74493;-64
2021/05/19 03:24:49;;;;;;;;;;;18.70;41.20;;;;;;5033817;28;74405;-63
2021/05/19 03:27:14;;;;;;;;;;;18.60;41.30;;;;;;5015477;28;78339;-68
2021/05/19 03:29:40;;;;;;;;;;;18.60;41.30;;;;;;5034496;28;74455;-64
2021/05/19 03:32:06;;;;;;;;;;;18.50;41.40;;;;;;5034000;28;75172;-67
2021/05/19 03:34:31;;;;;;;;;;;18.50;41.40;;;;;;5033403;28;75217;-63
2021/05/19 03:36:57;;;;;;;;;;;18.50;41.50;;;;;;5032944;28;74979;-64
2021/05/19 03:39:23;;;;;;;;;;;18.50;41.20;;;;;;5014699;28;75188;-72
2021/05/19 03:41:49;;;;;;;;;;;18.40;41.30;;;;;;5033900;28;74450;-67
2021/05/19 03:44:14;;;;;;;;;;;18.40;41.40;;;;;;5014866;28;77885;-65
2021/05/19 03:46:40;;;;;;;;;;;18.40;41.60;;;;;;5033488;28;75323;-75
2021/05/19 03:49:06;;;;;;;;;;;18.40;41.50;;;;;;5033572;28;75098;-71
2021/05/19 03:51:32;;;;;;;;;;;18.40;41.50;;;;;;5048145;28;77096;-74
2021/05/19 03:53:58;;;;;;;;;;;18.40;41.50;;;;;;5033417;28;75849;-74
2021/05/19 03:56:24;;;;;;;;;;;18.40;41.70;;;;;;5033320;28;75135;-74
2021/05/19 03:58:49;;;;;;;;;;;18.40;41.60;;;;;;5015080;28;77229;-73
2021/05/19 04:01:15;;;;;;;;;;;18.40;41.30;;;;;;5032801;28;75595;-75
2021/05/19 04:03:41;;;;;;;;;;;18.40;41.60;;;;;;5014864;28;78077;-68
2021/05/19 04:06:06;;;;;;;;;;;18.40;41.70;;;;;;5033393;28;74487;-74
2021/05/19 04:08:36;;;;;;;;;;;18.40;41.70;;;;;;5032935;28;75387;-74
2021/05/19 04:11:03;;;;;;;;;;;18.40;41.80;;;;;;5032864;28;75192;-66
2021/05/19 04:13:28;;;;;;;;;;;18.40;41.90;;;;;;5014419;28;77574;-65
2021/05/19 04:15:54;;;;;;;;;;;18.40;41.70;;;;;;5014195;28;75996;-66
2021/05/19 04:18:21;;;;;;;;;;;18.30;42.10;;;;;;5033067;28;74633;-67
2021/05/19 04:20:48;;;;;;;;;;;18.30;42.10;;;;;;5014666;28;74733;-66
2021/05/19 04:23:14;;;;;;;;;;;18.20;42.30;;;;;;5032699;28;75076;-70
2021/05/19 04:25:40;;;;;;;;;;;18.20;42.50;;;;;;5032577;28;75040;-67
2021/05/19 04:28:06;;;;;;;;;;;18.20;42.60;;;;;;5041434;27;75130;-64
2021/05/19 04:30:31;;;;;;;;;;;18.20;42.60;;;;;;5052619;28;75157;-65
2021/05/19 04:32:57;;;;;;;;;;;18.20;42.70;;;;;;5067550;27;77455;-65
2021/05/19 04:35:23;;;;;;;;;;;18.10;42.90;;;;;;5049982;27;74584;-64
2021/05/19 04:37:48;;;;;;;;;;;18.10;43.20;;;;;;5048092;28;74628;-64
2021/05/19 04:40:14;;;;;;;;;;;18.10;43.20;;;;;;5050898;28;77274;-69
2021/05/19 04:42:40;;;;;;;;;;;18.10;43.20;;;;;;5034024;28;75244;-73
2021/05/19 04:45:06;;;;;;;;;;;18.10;43.10;;;;;;5033995;28;75228;-71
2021/05/19 04:47:31;;;;;;;;;;;18.10;43.10;;;;;;5052471;28;75235;-70
2021/05/19 04:49:57;;;;;;;;;;;18.00;43.10;;;;;;5056355;27;77436;-66
2021/05/19 04:52:23;;;;;;;;;;;18.00;43.20;;;;;;5014282;28;74650;-67
2021/05/19 04:54:49;;;;;;;;;;;18.00;43.30;;;;;;5031733;28;74718;-69
2021/05/19 04:57:15;;;;;;;;;;;18.00;43.40;;;;;;5014603;28;76992;-65
2021/05/19 04:59:41;;;;;;;;;;;17.90;43.40;;;;;;5032515;28;75084;-70
2021/05/19 05:02:06;;;;;;;;;;;18.00;43.50;;;;;;5032298;28;75024;-66
2021/05/19 05:04:32;;;;;;;;;;;17.90;43.50;;;;;;5032046;28;75045;-68
2021/05/19 05:06:58;;;;;;;;;;;17.90;43.80;;;;;;5046811;28;77601;-70
2021/05/19 05:09:25;;;;;;;;;;;17.90;43.90;;;;;;5031649;28;75142;-71
2021/05/19 05:11:50;;;;;;;;;;;17.90;44.30;;;;;;5032280;28;75830;-72
2021/05/19 05:14:16;;;;;;;;;;;17.90;44.50;;;;;;5032544;28;75644;-71
2021/05/19 05:16:42;;;;;;;;;;;17.90;44.50;;;;;;5032093;28;75441;-68
2021/05/19 05:19:07;;;;;;;;;;;17.90;45.10;;;;;;5047078;28;77047;-71
2021/05/19 05:21:33;;;;;;;;;;;17.90;44.80;;;;;;5013470;28;76188;-71
2021/05/19 05:24:00;;;;;;;;;;;17.80;45.20;;;;;;5013053;28;77314;-71
2021/05/19 05:26:25;;;;;;;;;;;17.80;45.40;;;;;;5031992;28;75045;-70
2021/05/19 05:28:52;;;;;;;;;;;17.80;45.70;;;;;;5032266;28;74564;-69
2021/05/19 05:31:18;;;;;;;;;;;17.70;45.80;;;;;;5032622;28;75746;-68
2021/05/19 05:33:44;;;;;;;;;;;17.70;46.40;;;;;;5013130;28;75565;-69
2021/05/19 05:36:10;;;;;;;;;;;17.70;46.40;;;;;;5057036;27;76650;-62
2021/05/19 05:38:35;;;;;;;;;;;17.60;45.90;;;;;;5039986;28;76693;-64
2021/05/19 05:41:01;;;;;;;;;;;17.60;46.30;;;;;;5033630;28;75456;-68
2021/05/19 05:43:26;;;;;;;;;;;17.60;46.60;;;;;;5033358;28;74774;-69
2021/05/19 05:45:52;;;;;;;;;;;17.60;46.40;;;;;;5049277;28;74671;-69
2021/05/19 05:48:18;;;;;;;;;;;17.60;46.80;;;;;;5032766;28;74701;-69
2021/05/19 05:50:43;;;;;;;;;;;17.50;46.70;;;;;;5051254;28;75239;-69
2021/05/19 05:53:09;;;;;;;;;;;17.50;47.00;;;;;;5051508;28;74566;-68
2021/05/19 05:55:35;;;;;;;;;;;17.40;47.00;;;;;;5033158;28;76441;-64
2021/05/19 05:58:01;;;;;;;;;;;17.40;47.20;;;;;;5033010;28;75238;-67
2021/05/19 06:00:26;;;;;;;;;;;17.50;47.40;;;;;;5051369;27;75249;-64
2021/05/19 06:02:52;;;;;;;;;;;17.40;47.30;;;;;;5036391;28;75261;-67
2021/05/19 06:05:18;;;;;;;;;;;17.50;47.20;;;;;;5054327;28;74701;-65
2021/05/19 06:07:43;;;;;;;;;;;17.50;47.60;;;;;;5036584;27;76834;-71
2021/05/19 06:10:10;;;;;;;;;;;17.50;47.60;;;;;;5021343;28;77111;-70
2021/05/19 06:12:35;;;;;;;;;;;17.50;46.80;;;;;;5034279;28;76618;-68
2021/05/19 06:15:02;;;;;;;;;;;17.50;47.50;;;;;;5035940;28;76396;-74
2021/05/19 06:17:27;;;;;;;;;;;17.50;47.50;;;;;;5034529;27;74814;-69
2021/05/19 06:19:53;;;;;;;;;;;17.60;47.50;;;;;;5057517;27;74646;-79
2021/05/19 06:22:19;;;;;;;;;;;17.50;47.50;;;;;;5036296;28;75218;-74
2021/05/19 06:24:45;;;;;;;;;;;17.60;47.60;;;;;;5035887;28;74644;-70
2021/05/19 06:27:11;;;;;;;;;;;17.70;47.80;;;;;;5054280;28;75155;-68
2021/05/19 06:29:37;;;;;;;;;;;17.70;47.40;;;;;;5055046;28;75361;-67
2021/05/19 06:32:03;;;;;;;;;;;17.70;47.50;;;;;;5036312;28;75503;-69
2021/05/19 06:34:29;;;;;;;;;;;17.80;47.50;;;;;;5029953;28;74684;-70
2021/05/19 06:36:54;;;;;;;;;;;17.80;47.30;;;;;;5050103;28;75869;-70
2021/05/19 06:39:22;;;;;;;;;;;17.80;46.90;;;;;;5052569;28;75731;-71
2021/05/19 06:41:48;;;;;;;;;;;17.90;47.00;;;;;;5052727;27;75790;-71
2021/05/19 06:44:15;;;;;;;;;;;17.90;47.00;;;;;;5062647;27;77379;-70
2021/05/19 06:46:41;;;;;;;;;;;17.90;47.10;;;;;;5028667;28;76165;-69
2021/05/19 06:49:07;;;;;;;;;;;18.00;46.80;;;;;;5035916;28;75094;-66
2021/05/19 06:51:33;;;;;;;;;;;18.00;47.10;;;;;;5053402;28;74943;-69
2021/05/19 06:53:59;;;;;;;;;;;18.00;46.50;;;;;;5032602;28;75295;-67
2021/05/19 06:56:25;;;;;;;;;;;18.10;46.50;;;;;;5051826;28;75693;-68
2021/05/19 06:58:51;;;;;;;;;;;18.00;46.60;;;;;;5053058;28;74561;-68
2021/05/19 07:01:16;;;;;;;;;;;18.00;46.40;;;;;;5033629;28;76647;-67
2021/05/19 07:03:42;;;;;;;;;;;18.10;46.50;;;;;;5047192;27;75855;-67
2021/05/19 07:06:08;;;;;;;;;;;18.10;46.50;;;;;;5033894;28;76141;-68
2021/05/19 07:08:33;;;;;;;;;;;18.20;46.20;;;;;;5053255;27;75149;-68
2021/05/19 07:10:59;;;;;;;;;;;18.30;46.10;;;;;;5034467;28;75341;-68
2021/05/19 07:13:28;;;;;;;;;;;18.30;45.90;;;;;;5052718;27;75045;-68
2021/05/19 07:15:54;;;;;;;;;;;18.40;45.70;;;;;;5053272;28;75122;-68
2021/05/19 07:18:20;;;;;;;;;;;18.40;45.40;;;;;;5035335;28;74702;-68
2021/05/19 07:20:46;;;;;;;;;;;18.40;45.50;;;;;;5034775;28;76943;-68
2021/05/19 07:23:12;;;;;;;;;;;18.40;45.10;;;;;;5052525;28;74620;-68
2021/05/19 07:25:38;;;;;;;;;;;18.40;45.10;;;;;;5052971;28;75144;-68
2021/05/19 07:28:05;;;;;;;;;;;18.50;45.00;;;;;;5053466;28;75255;-68
2021/05/19 07:30:30;;;;;;;;;;;18.50;44.90;;;;;;5035391;28;77550;-68
2021/05/19 07:32:56;;;;;;;;;;;18.50;44.80;;;;;;5053652;28;75349;-69
2021/05/19 07:35:22;;;;;;;;;;;18.60;44.60;;;;;;5034819;28;77236;-71
2021/05/19 07:37:49;;;;;;;;;;;18.70;44.30;;;;;;5052934;28;75668;-68
2021/05/19 07:40:15;;;;;;;;;;;18.70;44.10;;;;;;5051080;27;75547;-69
2021/05/19 07:42:40;;;;;;;;;;;18.70;44.00;;;;;;5043204;28;74780;-68
2021/05/19 07:45:06;;;;;;;;;;;18.70;44.00;;;;;;5018350;28;76877;-68
2021/05/19 07:47:32;;;;;;;;;;;18.80;43.90;;;;;;5033778;28;78737;-70
2021/05/19 07:49:58;;;;;;;;;;;18.90;43.60;;;;;;5046686;27;75022;-71
2021/05/19 07:52:24;;;;;;;;;;;18.90;43.60;;;;;;5046824;27;75742;-71
2021/05/19 07:54:49;;;;;;;;;;;18.90;43.40;;;;;;5016100;28;77094;-70
2021/05/19 07:57:39;;;;;;;;;;;19.00;43.50;;;;;;5043912;28;75674;-70
2021/05/19 08:02:54;;;;;;;;;;;19.20;42.80;;;;;;5012841;28;75196;-70
2021/05/19 08:05:20;;;;;;;;;;;19.20;42.80;;;;;;5031884;28;75093;-71
2021/05/19 08:07:46;;;;;;;;;;;19.30;42.80;;;;;;5031425;28;76281;-71
2021/05/19 08:10:12;;;;;;;;;;;19.30;42.50;;;;;;5031928;28;78087;-71
2021/05/19 08:12:38;;;;;;;;;;;19.40;42.40;;;;;;5032835;28;77080;-70
2021/05/19 08:15:03;;;;;;;;;;;19.40;42.20;;;;;;5032024;28;75372;-71
2021/05/19 08:17:29;;;;;;;;;;;19.40;42.20;;;;;;5050583;28;75184;-70
2021/05/19 08:19:55;;;;;;;;;;;19.50;42.10;;;;;;5050778;28;74889;-71
2021/05/19 08:22:20;;;;;;;;;;;19.60;42.20;;;;;;5031231;28;78294;-70
2021/05/19 08:24:46;;;;;;;;;;;19.70;42.10;;;;;;5033021;28;75662;-69
2021/05/19 08:27:13;;;;;;;;;;;19.80;41.90;;;;;;5033013;28;76470;-70
2021/05/19 08:29:39;;;;;;;;;;;19.90;41.80;;;;;;5032783;28;78352;-70
2021/05/19 08:32:06;;;;;;;;;;;19.90;41.60;;;;;;5032413;28;75441;-71
2021/05/19 08:34:32;;;;;;;;;;;20.00;41.10;;;;;;5032011;28;75711;-70
2021/05/19 08:36:58;;;;;;;;;;;20.10;40.80;;;;;;5031649;28;75837;-70
2021/05/19 08:39:23;;;;;;;;;;;20.20;40.70;;;;;;5031813;28;75758;-70
2021/05/19 08:41:50;;;;;;;;;;;20.30;40.80;;;;;;5032042;28;75315;-69
2021/05/19 08:44:16;;;;;;;;;;;20.40;40.40;;;;;;5031965;27;75241;-70
2021/05/19 08:46:42;;;;;;;;;;;20.40;40.40;;;;;;5030129;28;75365;-70
2021/05/19 08:49:08;;;;;;;;;;;20.50;40.10;;;;;;5032129;28;77134;-70
2021/05/19 08:51:34;;;;;;;;;;;20.60;40.10;;;;;;5043147;28;75015;-72
2021/05/19 08:54:01;;;;;;;;;;;20.70;40.00;;;;;;5032278;28;77295;-70
2021/05/19 08:56:27;;;;;;;;;;;20.70;39.90;;;;;;5032306;28;76312;-69
2021/05/19 08:58:53;;;;;;;;;;;20.80;39.70;;;;;;5050675;28;75281;-70
2021/05/19 09:01:20;;;;;;;;;;;20.90;39.30;;;;;;5050258;28;75198;-70
2021/05/19 09:03:45;;;;;;;;;;;20.90;39.10;;;;;;5030048;28;77174;-71
2021/05/19 09:06:20;;;;;;;;;;;20.90;39.10;;;;;;5031726;28;77071;-70
2021/05/19 09:08:45;;;;;;;;;;;20.90;39.00;;;;;;5030783;28;77652;-70
2021/05/19 09:11:13;;;;;;;;;;;21.00;38.90;;;;;;5049095;28;75134;-69
2021/05/19 09:13:45;;;;;;;;;;;21.10;38.50;;;;;;5047787;28;75637;-69
2021/05/19 09:16:14;;;;;;;;;;;21.10;38.40;;;;;;5031984;28;77881;-69
2021/05/19 09:18:51;;;;;;;;;;;21.20;38.60;;;;;;5031782;28;77272;-70
2021/05/19 09:21:32;;;;;;;;;;;21.40;38.50;;;;;;5028349;28;77730;-70
2021/05/19 09:23:58;;;;;;;;;;;21.40;37.90;;;;;;5047555;28;75446;-70
2021/05/19 09:26:24;;;;;;;;;;;21.40;37.50;;;;;;5031485;28;76269;-70
2021/05/19 09:28:49;;;;;;;;;;;21.40;37.80;;;;;;5049620;28;75716;-70
2021/05/19 09:31:22;;;;;;;;;;;21.40;37.80;;;;;;5050409;28;75315;-70
2021/05/19 09:33:49;;;;;;;;;;;21.50;37.90;;;;;;5031377;28;75107;-70
2021/05/19 09:36:20;;;;;;;;;;;21.60;37.70;;;;;;5051314;28;75770;-70
2021/05/19 09:38:50;;;;;;;;;;;21.70;37.00;;;;;;5029413;28;76169;-70
2021/05/19 09:41:21;;;;;;;;;;;21.70;37.20;;;;;;5020696;28;75405;-71
2021/05/19 09:43:47;;;;;;;;;;;21.90;36.70;;;;;;5035508;28;74601;-71
2021/05/19 09:46:56;;;;;;;;;;;21.80;36.60;;;;;;5035062;28;75220;-70
2021/05/19 09:49:19;;;;;;;;;;;21.80;36.70;;;;;;5038708;28;74870;-71
2021/05/19 09:51:47;;;;;;;;;;;21.80;36.70;;;;;;5036640;28;75720;-68
2021/05/19 09:54:29;;;;;;;;;;;21.80;36.70;;;;;;5036173;28;76390;-71
2021/05/19 09:56:58;;;;;;;;;;;21.90;37.20;;;;;;5036543;28;77700;-70
2021/05/19 09:59:24;;;;;;;;;;;22.10;36.90;;;;;;5036128;28;75431;-70
2021/05/19 10:01:51;;;;;;;;;;;22.10;35.90;;;;;;5055131;28;75241;-70
2021/05/19 10:04:18;;;;;;;;;;;22.10;36.50;;;;;;5036197;28;75475;-71
2021/05/19 10:06:44;;;;;;;;;;;22.20;36.70;;;;;;5036390;28;77254;-70
2021/05/19 10:09:09;;;;;;;;;;;22.40;36.20;;;;;;5053419;27;75381;-70
2021/05/19 10:11:35;;;;;;;;;;;22.50;36.10;;;;;;5053838;28;75127;-70
2021/05/19 10:14:03;;;;;;;;;;;22.70;35.80;;;;;;5052747;28;75278;-70
2021/05/19 10:16:28;;;;;;;;;;;22.90;35.70;;;;;;5036934;28;76411;-70
2021/05/19 10:18:56;;;;;;;;;;;23.10;35.20;;;;;;5032602;28;77585;-70
2021/05/19 10:21:26;;;;;;;;;;;23.40;35.00;;;;;;5039384;28;75495;-70
2021/05/19 10:24:03;;;;;;;;;;;23.50;34.60;;;;;;5022998;28;77216;-71
2021/05/19 10:26:32;;;;;;;;;;;23.60;34.00;;;;;;5036798;28;75398;-70
2021/05/19 10:28:59;;;;;;;;;;;23.70;34.00;;;;;;5028223;28;76156;-69
2021/05/19 10:31:25;;;;;;;;;;;23.90;34.00;;;;;;5054734;28;75801;-70
2021/05/19 10:33:52;;;;;;;;;;;24.10;33.70;;;;;;5036170;28;76083;-70
2021/05/19 10:36:23;;;;;;;;;;;24.40;33.30;;;;;;5054533;28;75244;-69
2021/05/19 10:41:35;;;;;;;;;;;24.80;32.60;;;;;;5054046;28;74832;-70
2021/05/19 10:44:05;;;;;;;;;;;25.10;32.50;;;;;;5035867;28;77921;-70
2021/05/19 10:46:46;;;;;;;;;;;25.30;32.20;;;;;;5035496;28;77465;-71
2021/05/19 10:49:12;;;;;;;;;;;25.60;31.80;;;;;;5035468;28;75566;-70
2021/05/19 10:59:52;;;;;;;;;;;26.80;30.50;;;;;;5054064;28;74963;-72
2021/05/19 11:02:17;;;;;;;;;;;27.20;29.50;;;;;;5035338;28;75656;-71
2021/05/19 11:05:03;;;;;;;;;;;27.50;29.10;;;;;;5035129;28;76743;-72
2021/05/19 11:07:29;;;;;;;;;;;27.90;28.90;;;;;;5034767;28;77316;-70
2021/05/19 11:10:14;;;;;;;;;;;28.40;28.10;;;;;;5053343;28;75159;-72
2021/05/19 11:12:47;;;;;;;;;;;28.90;27.70;;;;;;5044209;27;75177;-71
2021/05/19 11:15:33;;;;;;;;;;;29.40;27.00;;;;;;5067860;27;76199;-71
2021/05/19 11:17:58;;;;;;;;;;;29.90;26.30;;;;;;5018931;28;76546;-71
2021/05/19 11:20:24;;;;;;;;;;;30.50;24.90;;;;;;5052234;28;75128;-71
2021/05/19 11:22:49;;;;;;;;;;;31.10;25.10;;;;;;5053161;28;75178;-72
2021/05/19 11:25:21;;;;;;;;;;;31.80;23.50;;;;;;5033890;28;76686;-71
2021/05/19 11:27:56;;;;;;;;;;;32.40;23.50;;;;;;5035059;28;75508;-71
2021/05/19 11:30:25;;;;;;;;;;;33.40;22.90;;;;;;5053111;28;75439;-71
2021/05/19 11:33:00;;;;;;;;;;;34.60;21.60;;;;;;5033870;28;75688;-71
2021/05/19 11:35:26;;;;;;;;;;;35.80;20.10;;;;;;5034046;28;78230;-68
2021/05/19 11:37:59;;;;;;;;;;;36.70;19.70;;;;;;5033633;28;77218;-68
2021/05/19 11:40:37;;;;;;;;;;;37.90;19.20;;;;;;5052423;28;75240;-70
2021/05/19 11:43:03;;;;;;;;;;;38.50;18.50;;;;;;5034553;28;77583;-69
2021/05/19 11:45:28;;;;;;;;;;;39.60;17.60;;;;;;5034949;28;74496;-69
2021/05/19 11:47:54;;;;;;;;;;;40.60;17.10;;;;;;5053479;28;74953;-70
2021/05/19 11:50:25;;;;;;;;;;;41.70;16.70;;;;;;5034768;28;76756;-70
2021/05/19 11:52:58;;;;;;;;;;;42.50;15.30;;;;;;5034720;28;78154;-69
2021/05/19 11:55:27;;;;;;;;;;;42.70;15.90;;;;;;5051847;28;75366;-70
2021/05/19 11:58:09;;;;;;;;;;;43.40;15.20;;;;;;5042484;27;77442;-71
2021/05/19 12:00:37;;;;;;;;;;;44.10;15.50;;;;;;5053153;28;75303;-71
2021/05/19 12:03:04;;;;;;;;;;;44.90;14.80;;;;;;5034055;28;75531;-74
2021/05/19 12:05:39;;;;;;;;;;;45.40;14.50;;;;;;5034397;28;75399;-73
2021/05/19 12:08:05;;;;;;;;;;;45.70;14.10;;;;;;5034084;28;75354;-72
2021/05/19 12:10:30;;;;;;;;;;;45.90;14.50;;;;;;5047103;27;76145;-71
2021/05/19 12:12:57;;;;;;;;;;;46.40;14.60;;;;;;5032305;28;77592;-71
2021/05/19 12:15:23;;;;;;;;;;;46.90;13.90;;;;;;5032398;27;76470;-71
2021/05/19 12:17:56;;;;;;;;;;;47.40;14.10;;;;;;5049637;28;75140;-71
2021/05/19 12:20:24;;;;;;;;;;;47.70;14.10;;;;;;5052296;28;74620;-72
2021/05/19 12:22:49;;;;;;;;;;;48.40;13.90;;;;;;5052057;28;74767;-71
2021/05/19 12:25:15;;;;;;;;;;;48.90;13.40;;;;;;5033194;28;77488;-72
2021/05/19 12:27:41;;;;;;;;;;;49.30;13.50;;;;;;5034457;28;76212;-73
2021/05/19 12:30:08;;;;;;;;;;;49.40;13.00;;;;;;5033821;28;77338;-72
2021/05/19 12:32:34;;;;;;;;;;;49.60;13.40;;;;;;5052695;28;75336;-71
2021/05/19 12:35:15;;;;;;;;;;;50.00;13.40;;;;;;5034172;28;75185;-71
2021/05/19 12:37:43;;;;;;;;;;;50.50;13.10;;;;;;5052567;28;74984;-72
2021/05/19 12:40:10;;;;;;;;;;;50.90;12.90;;;;;;5032380;28;76036;-71
2021/05/19 12:42:45;;;;;;;;;;;51.10;12.00;;;;;;5051871;28;75377;-72
2021/05/19 12:45:12;;;;;;;;;;;51.30;12.10;;;;;;5052423;28;74860;-72
2021/05/19 12:47:38;;;;;;;;;;;51.20;12.90;;;;;;5046306;28;75092;-71
2021/05/19 12:50:04;;;;;;;;;;;51.40;12.40;;;;;;5030434;28;77207;-70
2021/05/19 12:52:31;;;;;;;;;;;51.80;12.40;;;;;;5052936;28;74492;-71
2021/05/19 12:54:57;;;;;;;;;;;52.40;12.20;;;;;;5041451;28;75479;-71
2021/05/19 12:57:30;;;;;;;;;;;52.80;12.00;;;;;;5052433;28;74462;-72
2021/05/19 13:00:02;;;;;;;;;;;53.00;11.20;;;;;;5028787;28;76372;-72
2021/05/19 13:02:37;;;;;;;;;;;52.80;11.50;;;;;;5067455;27;74600;-72
2021/05/19 13:05:04;;;;;;;;;;;52.70;12.30;;;;;;5067641;27;76721;-72
2021/05/19 13:07:30;;;;;;;;;;;52.90;12.70;;;;;;5033226;28;75894;-72
2021/05/19 13:10:10;;;;;;;;;;;53.20;12.30;;;;;;5031082;28;77035;-72
2021/05/19 13:12:50;;;;;;;;;;;53.70;12.10;;;;;;5023804;28;75914;-72
2021/05/19 13:15:25;;;;;;;;;;;53.90;12.10;;;;;;5053936;28;75789;-72
2021/05/19 13:18:02;;;;;;;;;;;54.40;11.70;;;;;;5054583;28;75593;-73
2021/05/19 13:20:29;;;;;;;;;;;54.90;11.50;;;;;;5055634;28;75866;-73
2021/05/19 13:22:56;;;;;;;;;;;55.40;11.50;;;;;;5054373;28;76005;-73
2021/05/19 13:25:23;;;;;;;;;;;55.60;10.80;;;;;;5055878;28;75125;-72
2021/05/19 13:27:50;;;;;;;;;;;55.20;11.30;;;;;;5037380;28;74618;-71
2021/05/19 13:30:18;;;;;;;;;;;55.30;11.60;;;;;;5033113;28;75077;-72
2021/05/19 13:38:15;;;;;;;;;;;55.80;11.40;;;;;;5035555;28;74872;-72
2021/05/19 13:40:40;;;;;;;;;;;56.30;11.00;;;;;;5035462;28;75086;-71
2021/05/19 13:43:06;;;;;;;;;;;56.50;11.30;;;;;;5016836;28;74689;-72
2021/05/19 13:45:31;;;;;;;;;;;56.80;11.20;;;;;;5017058;28;75405;-72
2021/05/19 13:47:57;;;;;;;;;;;57.30;10.90;;;;;;5035223;28;75235;-71
2021/05/19 13:50:23;;;;;;;;;;;57.40;10.50;;;;;;5050246;28;77125;-72
2021/05/19 13:52:48;;;;;;;;;;;57.00;10.10;;;;;;5050666;28;74692;-70
2021/05/19 13:55:14;;;;;;;;;;;56.40;10.80;;;;;;5016550;28;77340;-70
2021/05/19 13:57:40;;;;;;;;;;;55.80;10.90;;;;;;5016020;28;77392;-71
2021/05/19 14:00:26;;;;;;;;;;;55.60;11.00;;;;;;5050378;28;76363;-71
2021/05/19 14:02:57;;;;;;;;;;;55.90;11.20;;;;;;5016370;28;75789;-72
2021/05/19 14:05:27;;;;;;;;;;;56.20;10.40;;;;;;5016677;28;75459;-71
2021/05/19 14:07:53;;;;;;;;;;;55.90;10.60;;;;;;5016732;28;76971;-71
2021/05/19 14:10:21;;;;;;;;;;;55.40;10.70;;;;;;5016251;28;75534;-72
2021/05/19 14:12:50;;;;;;;;;;;55.30;11.10;;;;;;5044579;27;74551;-71
2021/05/19 14:16:11;;;;;;;;;;;55.50;10.70;;;;;;5018124;28;77572;-73
2021/05/19 14:28:46;;;;;;;;;;;55.10;10.80;;;;;;5053564;28;74470;-71
2021/05/19 14:31:12;;;;;;;;;;;55.40;10.80;;;;;;5036652;28;77175;-72
2021/05/19 14:33:38;;;;;;;;;;;55.70;10.50;;;;;;5036158;28;75462;-71
2021/05/19 15:00:33;;;;;;;;;;;40.20;14.80;;;;;;5054822;28;74552;-71
2021/05/19 15:02:59;;;;;;;;;;;40.00;15.20;;;;;;5053830;28;75309;-71
2021/05/19 15:05:24;;;;;;;;;;;39.70;15.30;;;;;;5054376;28;74767;-71
2021/05/19 15:07:50;;;;;;;;;;;39.00;15.50;;;;;;5054696;28;74731;-71
2021/05/19 15:10:16;;;;;;;;;;;37.90;15.90;;;;;;5035824;28;76154;-71
2021/05/19 15:12:41;;;;;;;;;;;37.30;16.40;;;;;;5036263;28;77799;-71
2021/05/19 15:15:08;;;;;;;;;;;37.00;16.60;;;;;;5054395;28;74582;-71